This is the latest recevied weather packets stored in our database for station/object IT9CYW-10. If no packets are shown the sender has not sent any weather packets the latest 10 day(s).
| Time | Temp. | Humidity | Pressure | Rain* | Wind** | Luminosity | Snow |
|---|---|---|---|---|---|---|---|
| 1777441378 | 16.11° C | 75% | 996.2 hPa | - | - | 100 W/m² | - |
| 1777439582 | 14.44° C | 75% | 996 hPa | - | - | 71 W/m² | - |
| 1777438682 | 13.89° C | 74% | 995.9 hPa | - | - | 37 W/m² | - |
| 1777437782 | 13.89° C | 73% | 995.7 hPa | - | - | 20 W/m² | - |
| 1777436882 | 13.33° C | 77% | 995.5 hPa | - | - | 10 W/m² | - |
| 1777435981 | 12.78° C | 78% | 995.4 hPa | - | - | 2 W/m² | - |
| 1777435081 | 13.33° C | 79% | 995.2 hPa | - | - | 0 W/m² | - |
| 1777434181 | 13.89° C | 77% | 994.7 hPa | - | - | 0 W/m² | - |
| 1777433281 | 13.89° C | 77% | 995 hPa | - | - | 0 W/m² | - |
| 1777432381 | 13.33° C | 80% | 995 hPa | - | - | 0 W/m² | - |
| 1777431481 | 13.89° C | 77% | 994.9 hPa | - | - | 0 W/m² | - |
| 1777430581 | 13.89° C | 79% | 995 hPa | - | - | 0 W/m² | - |
| 1777429681 | 13.33° C | 79% | 995 hPa | - | - | 0 W/m² | - |
| 1777428780 | 13.33° C | 79% | 995.2 hPa | - | - | 0 W/m² | - |
| 1777427880 | 13.89° C | 79% | 995.2 hPa | - | - | 0 W/m² | - |
| 1777426980 | 13.33° C | 81% | 995 hPa | - | - | 0 W/m² | - |
| 1777426080 | 13.89° C | 78% | 995 hPa | - | - | 0 W/m² | - |
| 1777425179 | 13.89° C | 79% | 995 hPa | - | - | 0 W/m² | - |
| 1777424279 | 13.89° C | 84% | 995 hPa | - | - | 0 W/m² | - |
| 1777423379 | 13.89° C | 87% | 995.2 hPa | - | - | 0 W/m² | - |
| 1777422479 | 13.33° C | 89% | 995.7 hPa | - | - | 0 W/m² | - |
| 1777421579 | 13.33° C | 89% | 995.7 hPa | - | - | 0 W/m² | - |
| 1777420679 | 13.33° C | 89% | 995.7 hPa | - | - | 0 W/m² | - |
| 1777419778 | 13.89° C | 90% | 995.7 hPa | - | - | 0 W/m² | - |
| 1777417979 | 13.89° C | 89% | 996.2 hPa | - | - | 0 W/m² | - |
* Rain since midnight (hover to see other rain measurements)
** Current wind speed in m/s (hover to see current wind gust speed)